sensor_id;sensor_type;location;lat;lon;timestamp;P1;durP1;ratioP1;P2;durP2;ratioP2
70247;SDS011;57641;51.416;5.506;2023-03-15T00:00:54;12.18;;;4.07;;
70247;SDS011;57641;51.416;5.506;2023-03-15T00:03:20;9.73;;;3.45;;
70247;SDS011;57641;51.416;5.506;2023-03-15T00:05:49;9.32;;;3.50;;
70247;SDS011;57641;51.416;5.506;2023-03-15T00:08:16;6.28;;;2.92;;
70247;SDS011;57641;51.416;5.506;2023-03-15T00:10:44;8.93;;;2.72;;
70247;SDS011;57641;51.416;5.506;2023-03-15T00:13:11;8.75;;;2.70;;
70247;SDS011;57641;51.416;5.506;2023-03-15T00:15:43;6.38;;;2.78;;
70247;SDS011;57641;51.416;5.506;2023-03-15T00:18:11;4.38;;;2.20;;
70247;SDS011;57641;51.416;5.506;2023-03-15T00:20:37;3.95;;;1.90;;
70247;SDS011;57641;51.416;5.506;2023-03-15T00:23:03;3.17;;;2.10;;
70247;SDS011;57641;51.416;5.506;2023-03-15T00:25:28;5.50;;;2.60;;
70247;SDS011;57641;51.416;5.506;2023-03-15T00:27:54;7.38;;;3.05;;
70247;SDS011;57641;51.416;5.506;2023-03-15T00:30:19;5.93;;;2.45;;
70247;SDS011;57641;51.416;5.506;2023-03-15T00:32:45;5.22;;;2.30;;
70247;SDS011;57641;51.416;5.506;2023-03-15T00:35:11;9.43;;;2.92;;
70247;SDS011;57641;51.416;5.506;2023-03-15T00:37:42;7.07;;;2.30;;
70247;SDS011;57641;51.416;5.506;2023-03-15T00:40:08;8.55;;;2.30;;
70247;SDS011;57641;51.416;5.506;2023-03-15T00:42:36;6.15;;;3.15;;
70247;SDS011;57641;51.416;5.506;2023-03-15T00:45:02;5.95;;;2.00;;
70247;SDS011;57641;51.416;5.506;2023-03-15T00:47:29;5.00;;;2.50;;
70247;SDS011;57641;51.416;5.506;2023-03-15T00:49:54;9.02;;;2.85;;
70247;SDS011;57641;51.416;5.506;2023-03-15T00:52:20;7.07;;;3.20;;
70247;SDS011;57641;51.416;5.506;2023-03-15T00:54:52;8.27;;;2.92;;
70247;SDS011;57641;51.416;5.506;2023-03-15T00:57:19;9.05;;;3.13;;
70247;SDS011;57641;51.416;5.506;2023-03-15T00:59:46;7.75;;;3.67;;
70247;SDS011;57641;51.416;5.506;2023-03-15T01:02:11;6.63;;;3.40;;
70247;SDS011;57641;51.416;5.506;2023-03-15T01:04:37;7.93;;;3.00;;
70247;SDS011;57641;51.416;5.506;2023-03-15T01:07:04;8.52;;;3.90;;
70247;SDS011;57641;51.416;5.506;2023-03-15T01:09:29;9.77;;;4.35;;
70247;SDS011;57641;51.416;5.506;2023-03-15T01:11:57;10.93;;;6.15;;
70247;SDS011;57641;51.416;5.506;2023-03-15T01:14:23;10.25;;;5.78;;
70247;SDS011;57641;51.416;5.506;2023-03-15T01:16:49;11.45;;;6.53;;
70247;SDS011;57641;51.416;5.506;2023-03-15T01:19:15;11.88;;;6.28;;
70247;SDS011;57641;51.416;5.506;2023-03-15T01:21:41;11.80;;;7.47;;
70247;SDS011;57641;51.416;5.506;2023-03-15T01:24:09;13.07;;;6.70;;
70247;SDS011;57641;51.416;5.506;2023-03-15T01:26:37;10.05;;;6.80;;
70247;SDS011;57641;51.416;5.506;2023-03-15T01:29:03;11.45;;;7.20;;
70247;SDS011;57641;51.416;5.506;2023-03-15T01:31:28;7.32;;;5.88;;
70247;SDS011;57641;51.416;5.506;2023-03-15T01:33:55;11.27;;;6.13;;
70247;SDS011;57641;51.416;5.506;2023-03-15T01:36:21;9.55;;;6.35;;
70247;SDS011;57641;51.416;5.506;2023-03-15T01:38:47;10.52;;;6.13;;
70247;SDS011;57641;51.416;5.506;2023-03-15T01:41:18;7.72;;;5.53;;
70247;SDS011;57641;51.416;5.506;2023-03-15T01:43:44;6.65;;;5.05;;
70247;SDS011;57641;51.416;5.506;2023-03-15T01:51:32;7.55;;;5.30;;
70247;SDS011;57641;51.416;5.506;2023-03-15T01:54:19;8.80;;;5.40;;
70247;SDS011;57641;51.416;5.506;2023-03-15T01:56:50;6.63;;;5.20;;
70247;SDS011;57641;51.416;5.506;2023-03-15T01:59:27;8.40;;;4.80;;
70247;SDS011;57641;51.416;5.506;2023-03-15T02:01:57;10.13;;;5.07;;
70247;SDS011;57641;51.416;5.506;2023-03-15T02:04:27;10.05;;;4.97;;
70247;SDS011;57641;51.416;5.506;2023-03-15T02:06:59;8.93;;;5.70;;
70247;SDS011;57641;51.416;5.506;2023-03-15T02:12:32;7.20;;;4.90;;
70247;SDS011;57641;51.416;5.506;2023-03-15T02:15:03;8.55;;;5.20;;
70247;SDS011;57641;51.416;5.506;2023-03-15T02:17:38;7.55;;;5.30;;
70247;SDS011;57641;51.416;5.506;2023-03-15T02:23:11;9.35;;;5.68;;
70247;SDS011;57641;51.416;5.506;2023-03-15T02:28:12;11.07;;;5.63;;
70247;SDS011;57641;51.416;5.506;2023-03-15T02:30:40;10.88;;;6.18;;
70247;SDS011;57641;51.416;5.506;2023-03-15T02:33:08;8.95;;;6.22;;
70247;SDS011;57641;51.416;5.506;2023-03-15T02:35:39;11.48;;;6.28;;
70247;SDS011;57641;51.416;5.506;2023-03-15T02:38:05;13.25;;;6.65;;
70247;SDS011;57641;51.416;5.506;2023-03-15T02:40:30;11.05;;;6.25;;
70247;SDS011;57641;51.416;5.506;2023-03-15T02:42:58;9.68;;;5.85;;
70247;SDS011;57641;51.416;5.506;2023-03-15T02:45:26;10.85;;;5.90;;
70247;SDS011;57641;51.416;5.506;2023-03-15T02:47:56;10.75;;;5.88;;
70247;SDS011;57641;51.416;5.506;2023-03-15T02:50:22;9.70;;;6.30;;
70247;SDS011;57641;51.416;5.506;2023-03-15T02:52:47;10.68;;;6.63;;
70247;SDS011;57641;51.416;5.506;2023-03-15T02:55:13;10.05;;;5.95;;
70247;SDS011;57641;51.416;5.506;2023-03-15T02:57:41;9.18;;;4.95;;
70247;SDS011;57641;51.416;5.506;2023-03-15T03:00:07;10.05;;;5.28;;
70247;SDS011;57641;51.416;5.506;2023-03-15T03:02:40;9.02;;;5.40;;
70247;SDS011;57641;51.416;5.506;2023-03-15T03:05:07;8.55;;;5.20;;
70247;SDS011;57641;51.416;5.506;2023-03-15T03:07:33;7.50;;;4.60;;
70247;SDS011;57641;51.416;5.506;2023-03-15T03:09:59;9.10;;;5.28;;
70247;SDS011;57641;51.416;5.506;2023-03-15T03:12:25;7.68;;;4.60;;
70247;SDS011;57641;51.416;5.506;2023-03-15T03:14:50;8.15;;;4.68;;
70247;SDS011;57641;51.416;5.506;2023-03-15T03:17:16;9.32;;;5.47;;
70247;SDS011;57641;51.416;5.506;2023-03-15T03:19:41;8.20;;;4.47;;
70247;SDS011;57641;51.416;5.506;2023-03-15T03:22:10;7.65;;;3.92;;
70247;SDS011;57641;51.416;5.506;2023-03-15T03:24:38;7.65;;;4.65;;
70247;SDS011;57641;51.416;5.506;2023-03-15T03:27:04;7.97;;;4.85;;
70247;SDS011;57641;51.416;5.506;2023-03-15T03:29:33;7.07;;;4.32;;
70247;SDS011;57641;51.416;5.506;2023-03-15T03:31:58;8.63;;;5.20;;
70247;SDS011;57641;51.416;5.506;2023-03-15T03:34:24;7.07;;;4.72;;
70247;SDS011;57641;51.416;5.506;2023-03-15T03:36:50;10.18;;;5.30;;
70247;SDS011;57641;51.416;5.506;2023-03-15T03:39:15;8.63;;;4.93;;
70247;SDS011;57641;51.416;5.506;2023-03-15T03:41:41;9.07;;;4.65;;
70247;SDS011;57641;51.416;5.506;2023-03-15T03:44:06;8.57;;;4.78;;
70247;SDS011;57641;51.416;5.506;2023-03-15T03:46:31;7.97;;;4.80;;
70247;SDS011;57641;51.416;5.506;2023-03-15T03:49:00;8.30;;;5.03;;
70247;SDS011;57641;51.416;5.506;2023-03-15T03:51:25;6.88;;;4.47;;
70247;SDS011;57641;51.416;5.506;2023-03-15T03:53:51;6.55;;;4.05;;
70247;SDS011;57641;51.416;5.506;2023-03-15T03:56:16;9.45;;;5.03;;
70247;SDS011;57641;51.416;5.506;2023-03-15T03:58:42;9.68;;;4.35;;
70247;SDS011;57641;51.416;5.506;2023-03-15T04:01:07;7.88;;;4.18;;
70247;SDS011;57641;51.416;5.506;2023-03-15T04:03:32;7.78;;;4.47;;
70247;SDS011;57641;51.416;5.506;2023-03-15T04:05:58;5.88;;;3.95;;
70247;SDS011;57641;51.416;5.506;2023-03-15T04:08:25;8.77;;;4.80;;
70247;SDS011;57641;51.416;5.506;2023-03-15T04:10:51;8.63;;;5.10;;
70247;SDS011;57641;51.416;5.506;2023-03-15T04:13:28;7.90;;;4.40;;
70247;SDS011;57641;51.416;5.506;2023-03-15T04:15:53;8.65;;;4.28;;
70247;SDS011;57641;51.416;5.506;2023-03-15T04:18:21;9.07;;;5.13;;
70247;SDS011;57641;51.416;5.506;2023-03-15T04:20:47;7.90;;;4.40;;
70247;SDS011;57641;51.416;5.506;2023-03-15T04:23:13;8.63;;;5.10;;
70247;SDS011;57641;51.416;5.506;2023-03-15T04:25:40;7.75;;;4.82;;
70247;SDS011;57641;51.416;5.506;2023-03-15T04:28:07;10.10;;;5.68;;
70247;SDS011;57641;51.416;5.506;2023-03-15T04:30:35;8.68;;;4.95;;
70247;SDS011;57641;51.416;5.506;2023-03-15T04:33:01;9.57;;;5.30;;
70247;SDS011;57641;51.416;5.506;2023-03-15T04:35:28;10.73;;;5.68;;
70247;SDS011;57641;51.416;5.506;2023-03-15T04:37:56;9.90;;;5.32;;
70247;SDS011;57641;51.416;5.506;2023-03-15T04:40:22;8.18;;;5.32;;
70247;SDS011;57641;51.416;5.506;2023-03-15T04:42:52;11.60;;;6.25;;
70247;SDS011;57641;51.416;5.506;2023-03-15T04:45:24;9.25;;;5.32;;
70247;SDS011;57641;51.416;5.506;2023-03-15T04:47:51;9.55;;;5.60;;
70247;SDS011;57641;51.416;5.506;2023-03-15T04:50:17;11.70;;;6.15;;
70247;SDS011;57641;51.416;5.506;2023-03-15T04:52:43;12.98;;;6.93;;
70247;SDS011;57641;51.416;5.506;2023-03-15T04:55:09;13.60;;;7.13;;
70247;SDS011;57641;51.416;5.506;2023-03-15T04:57:41;13.68;;;6.90;;
70247;SDS011;57641;51.416;5.506;2023-03-15T05:00:10;12.95;;;6.60;;
70247;SDS011;57641;51.416;5.506;2023-03-15T05:02:39;14.75;;;7.32;;
70247;SDS011;57641;51.416;5.506;2023-03-15T05:05:06;11.85;;;6.05;;
70247;SDS011;57641;51.416;5.506;2023-03-15T05:07:36;13.55;;;7.32;;
70247;SDS011;57641;51.416;5.506;2023-03-15T05:10:03;13.10;;;6.65;;
70247;SDS011;57641;51.416;5.506;2023-03-15T05:12:30;14.05;;;7.50;;
70247;SDS011;57641;51.416;5.506;2023-03-15T05:14:56;12.52;;;6.53;;
70247;SDS011;57641;51.416;5.506;2023-03-15T05:17:21;12.30;;;6.63;;
70247;SDS011;57641;51.416;5.506;2023-03-15T05:19:48;14.80;;;7.63;;
70247;SDS011;57641;51.416;5.506;2023-03-15T05:22:14;17.05;;;7.63;;
70247;SDS011;57641;51.416;5.506;2023-03-15T05:24:39;11.00;;;6.63;;
70247;SDS011;57641;51.416;5.506;2023-03-15T05:27:05;16.60;;;7.68;;
70247;SDS011;57641;51.416;5.506;2023-03-15T05:29:30;13.35;;;6.63;;
70247;SDS011;57641;51.416;5.506;2023-03-15T05:31:56;13.60;;;7.50;;
70247;SDS011;57641;51.416;5.506;2023-03-15T05:34:22;12.40;;;6.57;;
70247;SDS011;57641;51.416;5.506;2023-03-15T05:36:51;13.90;;;7.32;;
70247;SDS011;57641;51.416;5.506;2023-03-15T05:39:17;14.70;;;7.13;;
70247;SDS011;57641;51.416;5.506;2023-03-15T05:42:03;12.43;;;6.78;;
70247;SDS011;57641;51.416;5.506;2023-03-15T05:44:49;12.13;;;6.80;;
70247;SDS011;57641;51.416;5.506;2023-03-15T05:47:35;14.50;;;7.32;;
70247;SDS011;57641;51.416;5.506;2023-03-15T05:50:20;13.35;;;6.70;;
70247;SDS011;57641;51.416;5.506;2023-03-15T05:53:07;11.18;;;5.90;;
70247;SDS011;57641;51.416;5.506;2023-03-15T05:55:52;13.65;;;7.05;;
70247;SDS011;57641;51.416;5.506;2023-03-15T05:58:23;11.80;;;6.47;;
70247;SDS011;57641;51.416;5.506;2023-03-15T06:00:49;12.75;;;6.80;;
70247;SDS011;57641;51.416;5.506;2023-03-15T06:03:14;16.10;;;8.30;;
70247;SDS011;57641;51.416;5.506;2023-03-15T06:05:41;17.20;;;8.23;;
70247;SDS011;57641;51.416;5.506;2023-03-15T06:08:07;16.33;;;7.88;;
70247;SDS011;57641;51.416;5.506;2023-03-15T06:10:32;20.65;;;8.93;;
70247;SDS011;57641;51.416;5.506;2023-03-15T06:12:58;16.33;;;8.55;;
70247;SDS011;57641;51.416;5.506;2023-03-15T06:15:24;15.48;;;8.55;;
70247;SDS011;57641;51.416;5.506;2023-03-15T06:17:50;19.45;;;9.43;;
70247;SDS011;57641;51.416;5.506;2023-03-15T06:20:16;16.98;;;8.95;;
70247;SDS011;57641;51.416;5.506;2023-03-15T06:22:42;18.65;;;9.55;;
70247;SDS011;57641;51.416;5.506;2023-03-15T06:25:10;17.67;;;9.00;;
70247;SDS011;57641;51.416;5.506;2023-03-15T06:27:36;19.23;;;9.68;;
70247;SDS011;57641;51.416;5.506;2023-03-15T06:30:02;21.50;;;10.88;;
70247;SDS011;57641;51.416;5.506;2023-03-15T06:32:28;15.85;;;8.45;;
70247;SDS011;57641;51.416;5.506;2023-03-15T06:34:54;18.40;;;9.27;;
70247;SDS011;57641;51.416;5.506;2023-03-15T06:37:22;18.88;;;9.15;;
70247;SDS011;57641;51.416;5.506;2023-03-15T06:39:48;24.33;;;11.52;;
70247;SDS011;57641;51.416;5.506;2023-03-15T06:42:15;22.42;;;10.77;;
70247;SDS011;57641;51.416;5.506;2023-03-15T06:44:41;20.00;;;10.07;;
70247;SDS011;57641;51.416;5.506;2023-03-15T06:47:11;20.95;;;10.23;;
70247;SDS011;57641;51.416;5.506;2023-03-15T06:49:40;17.25;;;9.77;;
70247;SDS011;57641;51.416;5.506;2023-03-15T06:52:05;21.75;;;10.63;;
70247;SDS011;57641;51.416;5.506;2023-03-15T06:54:32;21.42;;;11.23;;
70247;SDS011;57641;51.416;5.506;2023-03-15T06:56:57;20.27;;;10.75;;
70247;SDS011;57641;51.416;5.506;2023-03-15T06:59:23;18.55;;;9.82;;
70247;SDS011;57641;51.416;5.506;2023-03-15T07:01:50;18.23;;;9.25;;
70247;SDS011;57641;51.416;5.506;2023-03-15T07:04:15;22.52;;;10.55;;
70247;SDS011;57641;51.416;5.506;2023-03-15T07:06:41;19.30;;;9.35;;
70247;SDS011;57641;51.416;5.506;2023-03-15T07:09:06;21.38;;;10.00;;
70247;SDS011;57641;51.416;5.506;2023-03-15T07:11:32;18.00;;;9.38;;
70247;SDS011;57641;51.416;5.506;2023-03-15T07:13:58;19.20;;;9.48;;
70247;SDS011;57641;51.416;5.506;2023-03-15T07:16:24;25.00;;;11.57;;
70247;SDS011;57641;51.416;5.506;2023-03-15T07:18:50;22.63;;;10.65;;
70247;SDS011;57641;51.416;5.506;2023-03-15T07:21:17;18.02;;;9.77;;
70247;SDS011;57641;51.416;5.506;2023-03-15T07:23:43;20.27;;;10.55;;
70247;SDS011;57641;51.416;5.506;2023-03-15T07:26:08;22.90;;;11.20;;
70247;SDS011;57641;51.416;5.506;2023-03-15T07:28:34;21.20;;;10.45;;
70247;SDS011;57641;51.416;5.506;2023-03-15T07:31:00;22.42;;;11.20;;
70247;SDS011;57641;51.416;5.506;2023-03-15T07:33:28;19.83;;;10.30;;
70247;SDS011;57641;51.416;5.506;2023-03-15T07:35:55;25.95;;;10.43;;
70247;SDS011;57641;51.416;5.506;2023-03-15T07:38:21;20.85;;;10.52;;
70247;SDS011;57641;51.416;5.506;2023-03-15T07:40:48;22.05;;;9.60;;
70247;SDS011;57641;51.416;5.506;2023-03-15T07:43:14;20.15;;;9.98;;
70247;SDS011;57641;51.416;5.506;2023-03-15T07:45:39;22.63;;;10.07;;
70247;SDS011;57641;51.416;5.506;2023-03-15T07:48:05;20.77;;;10.18;;
70247;SDS011;57641;51.416;5.506;2023-03-15T07:50:32;17.30;;;9.48;;
70247;SDS011;57641;51.416;5.506;2023-03-15T07:52:57;21.65;;;10.30;;
70247;SDS011;57641;51.416;5.506;2023-03-15T07:55:23;19.85;;;8.88;;
70247;SDS011;57641;51.416;5.506;2023-03-15T07:57:50;19.60;;;9.65;;
70247;SDS011;57641;51.416;5.506;2023-03-15T08:00:16;22.55;;;10.20;;
70247;SDS011;57641;51.416;5.506;2023-03-15T08:02:47;16.38;;;8.75;;
70247;SDS011;57641;51.416;5.506;2023-03-15T08:05:13;19.48;;;9.40;;
70247;SDS011;57641;51.416;5.506;2023-03-15T08:07:39;18.73;;;9.38;;
70247;SDS011;57641;51.416;5.506;2023-03-15T08:10:05;16.15;;;8.52;;
70247;SDS011;57641;51.416;5.506;2023-03-15T08:12:31;20.08;;;8.95;;
70247;SDS011;57641;51.416;5.506;2023-03-15T08:15:00;18.20;;;8.38;;
70247;SDS011;57641;51.416;5.506;2023-03-15T08:17:25;18.63;;;8.43;;
70247;SDS011;57641;51.416;5.506;2023-03-15T08:19:51;14.85;;;8.13;;
70247;SDS011;57641;51.416;5.506;2023-03-15T08:22:16;17.90;;;8.32;;
70247;SDS011;57641;51.416;5.506;2023-03-15T08:24:42;20.90;;;9.10;;
70247;SDS011;57641;51.416;5.506;2023-03-15T08:27:09;15.98;;;8.43;;
70247;SDS011;57641;51.416;5.506;2023-03-15T08:29:35;11.70;;;6.38;;
70247;SDS011;57641;51.416;5.506;2023-03-15T08:32:01;12.98;;;6.35;;
70247;SDS011;57641;51.416;5.506;2023-03-15T08:34:28;12.60;;;7.20;;
70247;SDS011;57641;51.416;5.506;2023-03-15T08:36:53;15.77;;;7.00;;
70247;SDS011;57641;51.416;5.506;2023-03-15T08:39:19;13.07;;;6.65;;
70247;SDS011;57641;51.416;5.506;2023-03-15T08:41:44;13.27;;;7.53;;
70247;SDS011;57641;51.416;5.506;2023-03-15T08:44:11;11.15;;;6.07;;
70247;SDS011;57641;51.416;5.506;2023-03-15T08:46:37;12.82;;;6.90;;
70247;SDS011;57641;51.416;5.506;2023-03-15T08:49:02;11.88;;;5.68;;
70247;SDS011;57641;51.416;5.506;2023-03-15T08:51:28;10.82;;;5.45;;
70247;SDS011;57641;51.416;5.506;2023-03-15T08:53:55;11.45;;;5.38;;
70247;SDS011;57641;51.416;5.506;2023-03-15T08:56:23;11.18;;;4.63;;
70247;SDS011;57641;51.416;5.506;2023-03-15T08:58:49;10.57;;;5.07;;
70247;SDS011;57641;51.416;5.506;2023-03-15T09:01:14;8.02;;;4.40;;
70247;SDS011;57641;51.416;5.506;2023-03-15T09:03:40;13.25;;;5.15;;
70247;SDS011;57641;51.416;5.506;2023-03-15T09:06:07;9.40;;;4.82;;
70247;SDS011;57641;51.416;5.506;2023-03-15T09:08:33;11.13;;;4.88;;
70247;SDS011;57641;51.416;5.506;2023-03-15T09:10:59;10.15;;;5.40;;
70247;SDS011;57641;51.416;5.506;2023-03-15T09:13:26;9.00;;;5.32;;
70247;SDS011;57641;51.416;5.506;2023-03-15T09:15:52;8.70;;;4.40;;
70247;SDS011;57641;51.416;5.506;2023-03-15T09:18:20;9.60;;;4.85;;
70247;SDS011;57641;51.416;5.506;2023-03-15T09:20:46;11.52;;;4.88;;
70247;SDS011;57641;51.416;5.506;2023-03-15T09:23:12;10.80;;;4.88;;
70247;SDS011;57641;51.416;5.506;2023-03-15T09:25:38;9.65;;;4.25;;
70247;SDS011;57641;51.416;5.506;2023-03-15T09:28:04;11.57;;;4.40;;
70247;SDS011;57641;51.416;5.506;2023-03-15T09:30:31;10.10;;;4.28;;
70247;SDS011;57641;51.416;5.506;2023-03-15T09:32:57;8.82;;;4.10;;
70247;SDS011;57641;51.416;5.506;2023-03-15T09:35:23;7.00;;;2.30;;
70247;SDS011;57641;51.416;5.506;2023-03-15T09:37:48;8.10;;;3.53;;
70247;SDS011;57641;51.416;5.506;2023-03-15T09:40:23;7.63;;;3.47;;
70247;SDS011;57641;51.416;5.506;2023-03-15T09:45:40;5.30;;;2.88;;
70247;SDS011;57641;51.416;5.506;2023-03-15T09:51:01;9.43;;;3.13;;
70247;SDS011;57641;51.416;5.506;2023-03-15T09:56:17;9.55;;;3.10;;
70247;SDS011;57641;51.416;5.506;2023-03-15T09:58:47;6.97;;;2.70;;
70247;SDS011;57641;51.416;5.506;2023-03-15T10:01:16;7.22;;;3.25;;
70247;SDS011;57641;51.416;5.506;2023-03-15T10:03:47;7.25;;;2.30;;
70247;SDS011;57641;51.416;5.506;2023-03-15T10:06:25;8.52;;;2.88;;
70247;SDS011;57641;51.416;5.506;2023-03-15T10:08:54;6.38;;;2.08;;
70247;SDS011;57641;51.416;5.506;2023-03-15T10:21:48;5.80;;;1.70;;
70247;SDS011;57641;51.416;5.506;2023-03-15T10:24:32;6.47;;;1.80;;
70247;SDS011;57641;51.416;5.506;2023-03-15T10:27:12;7.20;;;1.52;;
70247;SDS011;57641;51.416;5.506;2023-03-15T10:29:44;4.95;;;2.20;;
70247;SDS011;57641;51.416;5.506;2023-03-15T10:32:17;4.85;;;2.05;;
70247;SDS011;57641;51.416;5.506;2023-03-15T10:34:47;4.57;;;1.63;;
70247;SDS011;57641;51.416;5.506;2023-03-15T10:37:16;3.05;;;1.40;;
70247;SDS011;57641;51.416;5.506;2023-03-15T10:39:46;4.72;;;1.60;;
70247;SDS011;57641;51.416;5.506;2023-03-15T10:42:24;6.28;;;2.28;;
70247;SDS011;57641;51.416;5.506;2023-03-15T10:44:52;4.68;;;1.60;;
70247;SDS011;57641;51.416;5.506;2023-03-15T10:47:19;7.57;;;1.70;;
70247;SDS011;57641;51.416;5.506;2023-03-15T10:49:46;6.82;;;1.55;;
70247;SDS011;57641;51.416;5.506;2023-03-15T10:52:30;2.47;;;1.40;;
70247;SDS011;57641;51.416;5.506;2023-03-15T10:55:04;5.38;;;1.35;;
70247;SDS011;57641;51.416;5.506;2023-03-15T10:57:41;6.43;;;1.23;;
70247;SDS011;57641;51.416;5.506;2023-03-15T11:00:28;2.55;;;1.10;;
70247;SDS011;57641;51.416;5.506;2023-03-15T11:03:16;2.85;;;0.98;;
70247;SDS011;57641;51.416;5.506;2023-03-15T11:05:45;3.90;;;1.02;;
70247;SDS011;57641;51.416;5.506;2023-03-15T11:08:14;2.65;;;0.80;;
70247;SDS011;57641;51.416;5.506;2023-03-15T11:10:42;2.45;;;0.77;;
70247;SDS011;57641;51.416;5.506;2023-03-15T11:21:19;5.43;;;1.08;;
70247;SDS011;57641;51.416;5.506;2023-03-15T11:23:48;4.53;;;1.00;;
70247;SDS011;57641;51.416;5.506;2023-03-15T11:26:19;4.35;;;1.15;;
70247;SDS011;57641;51.416;5.506;2023-03-15T11:29:07;5.35;;;0.88;;
70247;SDS011;57641;51.416;5.506;2023-03-15T11:31:41;5.07;;;0.90;;
70247;SDS011;57641;51.416;5.506;2023-03-15T11:37:15;6.43;;;1.13;;
70247;SDS011;57641;51.416;5.506;2023-03-15T11:40:32;3.80;;;0.70;;
70247;SDS011;57641;51.416;5.506;2023-03-15T11:45:38;4.13;;;0.90;;
70247;SDS011;57641;51.416;5.506;2023-03-15T11:48:29;2.70;;;1.33;;
70247;SDS011;57641;51.416;5.506;2023-03-15T11:51:05;4.75;;;1.30;;
70247;SDS011;57641;51.416;5.506;2023-03-15T11:53:46;4.35;;;0.98;;
70247;SDS011;57641;51.416;5.506;2023-03-15T11:59:06;5.40;;;1.20;;
70247;SDS011;57641;51.416;5.506;2023-03-15T12:01:47;6.03;;;1.00;;
70247;SDS011;57641;51.416;5.506;2023-03-15T12:06:50;3.00;;;0.73;;
70247;SDS011;57641;51.416;5.506;2023-03-15T12:11:56;6.68;;;1.30;;
70247;SDS011;57641;51.416;5.506;2023-03-15T12:16:57;4.65;;;1.20;;
70247;SDS011;57641;51.416;5.506;2023-03-15T12:19:55;1.63;;;1.05;;
70247;SDS011;57641;51.416;5.506;2023-03-15T12:22:25;4.15;;;0.80;;
70247;SDS011;57641;51.416;5.506;2023-03-15T12:24:57;2.70;;;1.17;;
70247;SDS011;57641;51.416;5.506;2023-03-15T12:27:26;4.15;;;1.00;;
70247;SDS011;57641;51.416;5.506;2023-03-15T12:29:57;2.22;;;0.80;;
70247;SDS011;57641;51.416;5.506;2023-03-15T12:32:25;2.55;;;0.73;;
70247;SDS011;57641;51.416;5.506;2023-03-15T12:34:57;2.25;;;1.13;;
70247;SDS011;57641;51.416;5.506;2023-03-15T12:37:42;0.98;;;0.60;;
70247;SDS011;57641;51.416;5.506;2023-03-15T12:47:43;2.40;;;0.70;;
70247;SDS011;57641;51.416;5.506;2023-03-15T12:53:22;1.02;;;0.60;;
70247;SDS011;57641;51.416;5.506;2023-03-15T12:59:05;1.73;;;0.70;;
70247;SDS011;57641;51.416;5.506;2023-03-15T13:01:58;2.58;;;0.80;;
70247;SDS011;57641;51.416;5.506;2023-03-15T13:04:27;1.48;;;0.73;;
70247;SDS011;57641;51.416;5.506;2023-03-15T13:07:13;3.40;;;0.73;;
70247;SDS011;57641;51.416;5.506;2023-03-15T13:09:48;1.85;;;0.60;;
70247;SDS011;57641;51.416;5.506;2023-03-15T13:12:37;1.38;;;0.60;;
70247;SDS011;57641;51.416;5.506;2023-03-15T13:15:26;1.88;;;0.63;;
70247;SDS011;57641;51.416;5.506;2023-03-15T13:18:02;3.38;;;0.68;;
70247;SDS011;57641;51.416;5.506;2023-03-15T13:20:46;2.03;;;0.52;;
70247;SDS011;57641;51.416;5.506;2023-03-15T13:23:32;0.70;;;0.50;;
70247;SDS011;57641;51.416;5.506;2023-03-15T13:26:12;3.30;;;1.33;;
70247;SDS011;57641;51.416;5.506;2023-03-15T13:28:47;2.20;;;0.90;;
70247;SDS011;57641;51.416;5.506;2023-03-15T13:33:47;2.67;;;0.82;;
70247;SDS011;57641;51.416;5.506;2023-03-15T13:36:15;2.08;;;0.63;;
70247;SDS011;57641;51.416;5.506;2023-03-15T13:38:48;3.60;;;1.00;;
70247;SDS011;57641;51.416;5.506;2023-03-15T13:41:17;2.05;;;0.60;;
70247;SDS011;57641;51.416;5.506;2023-03-15T13:43:50;3.42;;;0.77;;
70247;SDS011;57641;51.416;5.506;2023-03-15T13:46:19;1.75;;;0.70;;
70247;SDS011;57641;51.416;5.506;2023-03-15T13:48:49;2.10;;;0.60;;
70247;SDS011;57641;51.416;5.506;2023-03-15T13:53:48;1.52;;;1.10;;
70247;SDS011;57641;51.416;5.506;2023-03-15T13:56:24;2.00;;;1.00;;
70247;SDS011;57641;51.416;5.506;2023-03-15T13:58:52;1.40;;;0.60;;
70247;SDS011;57641;51.416;5.506;2023-03-15T14:01:20;2.22;;;1.30;;
70247;SDS011;57641;51.416;5.506;2023-03-15T14:03:52;1.58;;;0.50;;
70247;SDS011;57641;51.416;5.506;2023-03-15T14:06:24;1.77;;;0.60;;
70247;SDS011;57641;51.416;5.506;2023-03-15T14:08:58;2.90;;;0.60;;
70247;SDS011;57641;51.416;5.506;2023-03-15T14:11:33;2.47;;;0.50;;
70247;SDS011;57641;51.416;5.506;2023-03-15T14:14:02;2.33;;;0.67;;
70247;SDS011;57641;51.416;5.506;2023-03-15T14:16:49;5.03;;;0.60;;
70247;SDS011;57641;51.416;5.506;2023-03-15T14:19:28;2.00;;;0.60;;
70247;SDS011;57641;51.416;5.506;2023-03-15T14:21:56;1.55;;;0.55;;
70247;SDS011;57641;51.416;5.506;2023-03-15T14:26:59;1.50;;;0.70;;
70247;SDS011;57641;51.416;5.506;2023-03-15T14:34:59;2.40;;;0.55;;
70247;SDS011;57641;51.416;5.506;2023-03-15T14:37:44;0.80;;;0.50;;
70247;SDS011;57641;51.416;5.506;2023-03-15T14:40:21;2.40;;;0.68;;
70247;SDS011;57641;51.416;5.506;2023-03-15T14:42:53;0.95;;;0.50;;
70247;SDS011;57641;51.416;5.506;2023-03-15T14:45:19;2.22;;;0.60;;
70247;SDS011;57641;51.416;5.506;2023-03-15T14:47:49;1.88;;;0.60;;
70247;SDS011;57641;51.416;5.506;2023-03-15T14:50:20;1.15;;;0.47;;
70247;SDS011;57641;51.416;5.506;2023-03-15T14:52:47;2.55;;;0.80;;
70247;SDS011;57641;51.416;5.506;2023-03-15T14:55:17;0.75;;;0.50;;
70247;SDS011;57641;51.416;5.506;2023-03-15T14:57:45;2.20;;;0.60;;
70247;SDS011;57641;51.416;5.506;2023-03-15T15:00:15;1.30;;;0.68;;
70247;SDS011;57641;51.416;5.506;2023-03-15T15:02:46;2.53;;;0.60;;
70247;SDS011;57641;51.416;5.506;2023-03-15T15:05:20;3.55;;;0.98;;
70247;SDS011;57641;51.416;5.506;2023-03-15T15:07:57;0.85;;;0.50;;
70247;SDS011;57641;51.416;5.506;2023-03-15T15:10:37;2.55;;;0.50;;
70247;SDS011;57641;51.416;5.506;2023-03-15T15:13:04;2.05;;;0.50;;
70247;SDS011;57641;51.416;5.506;2023-03-15T15:15:30;1.15;;;0.70;;
70247;SDS011;57641;51.416;5.506;2023-03-15T15:17:58;2.58;;;0.70;;
70247;SDS011;57641;51.416;5.506;2023-03-15T15:20:24;2.08;;;0.60;;
70247;SDS011;57641;51.416;5.506;2023-03-15T15:22:49;1.58;;;0.63;;
70247;SDS011;57641;51.416;5.506;2023-03-15T15:25:21;0.93;;;0.60;;
70247;SDS011;57641;51.416;5.506;2023-03-15T15:27:48;1.23;;;0.60;;
70247;SDS011;57641;51.416;5.506;2023-03-15T15:30:19;2.25;;;1.10;;
70247;SDS011;57641;51.416;5.506;2023-03-15T15:32:46;1.50;;;1.13;;
70247;SDS011;57641;51.416;5.506;2023-03-15T15:35:14;1.20;;;0.80;;
70247;SDS011;57641;51.416;5.506;2023-03-15T15:37:42;2.88;;;0.93;;
70247;SDS011;57641;51.416;5.506;2023-03-15T15:40:20;4.40;;;1.00;;
70247;SDS011;57641;51.416;5.506;2023-03-15T15:42:50;2.83;;;0.90;;
70247;SDS011;57641;51.416;5.506;2023-03-15T15:45:16;1.70;;;1.00;;
70247;SDS011;57641;51.416;5.506;2023-03-15T15:47:42;2.28;;;0.80;;
70247;SDS011;57641;51.416;5.506;2023-03-15T15:50:10;0.88;;;0.60;;
70247;SDS011;57641;51.416;5.506;2023-03-15T15:52:37;1.80;;;0.75;;
70247;SDS011;57641;51.416;5.506;2023-03-15T15:55:14;2.00;;;0.80;;
70247;SDS011;57641;51.416;5.506;2023-03-15T15:57:43;1.27;;;0.80;;
70247;SDS011;57641;51.416;5.506;2023-03-15T16:00:18;3.70;;;0.88;;
70247;SDS011;57641;51.416;5.506;2023-03-15T16:02:48;2.20;;;0.85;;
70247;SDS011;57641;51.416;5.506;2023-03-15T16:05:16;1.98;;;1.35;;
70247;SDS011;57641;51.416;5.506;2023-03-15T16:07:43;2.30;;;0.90;;
70247;SDS011;57641;51.416;5.506;2023-03-15T16:10:15;0.70;;;0.68;;
70247;SDS011;57641;51.416;5.506;2023-03-15T16:12:44;3.05;;;0.80;;
70247;SDS011;57641;51.416;5.506;2023-03-15T16:15:11;2.03;;;0.88;;
70247;SDS011;57641;51.416;5.506;2023-03-15T16:17:39;2.35;;;1.10;;